Yap, Federated States of Micronesia
Current Conditions -  °F | °C
As of 11:52 PM on Saturday 22 Nov 2014 (Local Time) from PTYA Reporting Station
Broken Clouds Broken Clouds  
Wind Chill: 81°   Ceiling: 30000
Heat Index: 87°   Visibility: 12mi
Dew Point: 77°   Wind: 5mph
Humidity: 88%   Direction: NA
Pressure: 29.82"   Gusts: NA
Location:  9.48°N, 138.08°E
Report Text: PTYA 221352Z VRB04KT 12SM SCT016 SCT130 BKN300 27/25 A2982 RMK SLP100 T02700248
Loading
Personal Weather Stations






























Interactive Weather Map New forecast layout! Learn more

10-Day Weather Forecast

Advertisements
Track Severe Weather on mobile